This is the latest recevied weather packets stored in our database for station/object LU1HKO-13. If no packets are shown the sender has not sent any weather packets the latest 10 day(s).
| Time | Temp. | Humidity | Pressure | Rain* | Wind** | Luminosity | Snow |
|---|---|---|---|---|---|---|---|
| 1777969523 | 13.33° C | 91% | 1012.2 hPa | 0 mm | - | - | - |
| 1777967747 | 13.33° C | 91% | 1012 hPa | 0 mm | - | - | - |
| 1777965971 | 13.89° C | 90% | 1012 hPa | 0 mm | - | - | - |
| 1777954522 | 15° C | 85% | 1012.7 hPa | 0 mm | - | - | - |
| 1777953359 | 15.56° C | 83% | 1012.3 hPa | 0 mm | - | - | - |
| 1777952135 | 16.11° C | 82% | 1012.6 hPa | 0 mm | - | - | - |
| 1777950971 | 16.11° C | 83% | 1012.5 hPa | 0 mm | - | - | - |
| 1777942271 | 17.78° C | 76% | 1012.1 hPa | 0 mm | - | - | - |
| 1777939235 | 18.89° C | 73% | 1011.8 hPa | 0 mm | - | - | - |
| 1777933830 | 21.11° C | 60% | 1011.3 hPa | 0 mm | - | - | - |
| 1777930854 | 22.78° C | 53% | 1010.3 hPa | 0 mm | - | - | - |
| 1777930247 | 23.33° C | 53% | 1010.4 hPa | 0 mm | - | - | - |
| 1777923628 | 26.11° C | 40% | 1010.4 hPa | 0 mm | - | - | - |
| 1777922474 | 26.67° C | 37% | 1010.5 hPa | 0 mm | - | - | - |
| 1777921867 | 27.22° C | 34% | 1010.6 hPa | 0 mm | - | - | - |
| 1777921259 | 27.22° C | 32% | 1010.8 hPa | 0 mm | - | - | - |
| 1777919478 | 28.33° C | 28% | 1011.1 hPa | 0 mm | - | - | - |
| 1777914033 | 26.67° C | 30% | 1012.4 hPa | 0 mm | - | - | - |
| 1777911057 | 25.56° C | 33% | 1013.5 hPa | 0 mm | - | - | - |
| 1777908629 | 25.56° C | 33% | 1013.9 hPa | 0 mm | - | - | - |
| 1777906867 | 23.89° C | 37% | 1014.1 hPa | 0 mm | - | - | - |
| 1777900855 | 18.89° C | 52% | 1014.5 hPa | 0 mm | - | - | - |
| 1777896664 | 15° C | 71% | 1014.1 hPa | 0 mm | - | - | - |
| 1777895450 | 12.22° C | 74% | 1014 hPa | 0 mm | - | - | - |
| 1777894255 | 10.56° C | 78% | 1013.8 hPa | 0 mm | - | - | - |
* Rain latest hour (hover to see other rain measurements)
** Current wind speed in m/s (hover to see current wind gust speed)